• Join FlightAware (Why Join?)
  • Login
  • US Flag 
11:16AM EST


 

Airport Tracker/Info


-or-


 

Live Flight TrackerFlight Track Log ✈ N56LW ✈ 04-May-2014 ✈ KLEE - KDTS

Flight Track Log - Related Links

Times and Time Zones

All times are in EDT time to prevent confusion due to time zone crossing. See the N56LW flight status page for this flight to view local times or setup timezone preferences in your user account.

Time Position Orientation Groundspeed Altitude Reporting Facility
EDT Latitude Longitude Course Direction KTS MPH feet Rate Location/Type
02:02PM 28.8500 -81.8500 302° West 227 261 1,400  Level Orlando TRACON
02:03PM 28.8703 -81.8872 302° West 244 281 1,800 1,080 Climbing Jacksonville Center
02:04PM 28.9083 -81.9508 304° West 244 281 3,200 2,100 Climbing Jacksonville Center
02:05PM 28.9483 -82.0122 307° West 250 288 5,900 2,340 Climbing Jacksonville Center
02:06PM 28.9592 -82.0953 278° West 255 293 7,900 2,400 Climbing Jacksonville Center
02:07PM 28.9661 -82.1783 275° West 260 299 10,800 1,800 Climbing Jacksonville Center
02:08PM 29.0206 -82.2514 310° West 273 314 11,600 1,800 Climbing Jacksonville Center
02:09PM 29.0733 -82.3200 311° West 288 331 14,400 2,580 Climbing Jacksonville Center
02:10PM 29.1256 -82.3933 309° West 293 337 16,800 2,160 Climbing Jacksonville Center
02:11PM 29.1781 -82.4644 310° West 293 337 18,800 1,920 Climbing Jacksonville Center
02:12PM 29.2306 -82.5381 309° West 293 337 20,700 1,860 Climbing Jacksonville Center
02:13PM 29.2850 -82.6117 310° West 293 337 22,600 1,860 Climbing Jacksonville Center
02:14PM 29.3372 -82.6853 309° West 298 343 24,500 1,500 Climbing Jacksonville Center
02:15PM 29.3939 -82.7614 311° West 298 343 25,700 720 Climbing Jacksonville Center
02:16PM 29.4522 -82.8450 309° West 316 364 26,000 660 Climbing Jacksonville Center
02:17PM 29.5025 -82.9283 305° West 340 391 27,100 900 Climbing Jacksonville Center
02:18PM 29.5317 -83.0358 287° West 346 398 27,800 420 Climbing Jacksonville Center
02:19PM 29.5586 -83.1408 286° West 351 404 28,000 60 Climbing Jacksonville Center
02:20PM 29.5894 -83.2675 286° West 362 417 28,000  Level Jacksonville Center
02:21PM 29.6206 -83.3800 288° West 362 417 28,000  Level Jacksonville Center
02:22PM 29.6514 -83.4972 287° West 367 422 28,000  Level Jacksonville Center
02:23PM 29.6819 -83.6097 287° West 367 422 28,000  Level Jacksonville Center
02:24PM 29.7378 -83.7106 303° West 367 422 28,000  Level Jacksonville Center
02:25PM 29.7769 -83.8042 296° West 367 422 28,000  Level Jacksonville Center
02:26PM 29.8053 -83.9194 286° West 367 422 28,000  Level Jacksonville Center
02:27PM 29.8333 -84.0347 286° West 373 429 28,000  Level Jacksonville Center
02:28PM 29.8617 -84.1522 286° West 373 429 28,000  Level Jacksonville Center
02:29PM 29.8914 -84.2819 285° West 378 435 28,000  Level Jacksonville Center
02:30PM 29.9175 -84.3950 285° West 373 429 28,000  Level Jacksonville Center
02:31PM 29.9453 -84.5131 285° West 373 429 28,000  Level Jacksonville Center
02:32PM 29.9750 -84.6286 287° West 379 436 28,000  Level Jacksonville Center
02:33PM 30.0025 -84.7442 285° West 379 436 28,000 -240 Level Jacksonville Center
02:34PM 30.0300 -84.8597 285° West 379 436 27,600 -840 Descending Jacksonville Center
02:35PM 30.0575 -84.9781 285° West 374 430 26,400 -1,200 Descending Jacksonville Center
02:36PM 30.0847 -85.0914 286° West 374 430 25,200 -1,080 Descending Jacksonville Center
02:37PM 30.1119 -85.2025 286° West 374 430 24,300 -1,020 Descending Jacksonville Center
02:38PM 30.1372 -85.3111 285° West 361 415 23,200 -660 Descending Jacksonville Center
02:39PM 30.1578 -85.4269 282° West 361 415 23,000 -120 Descending Jacksonville Center
02:40PM 30.1828 -85.5308 286° West 354 407 23,000 -420 Level Jacksonville Center
02:41PM 30.2100 -85.6328 287° West 344 396 22,200 -840 Descending Jacksonville Center
02:43PM 30.2331 -85.8158 291° West  Level FlightAware Approximate
02:50PM 30.4000 -86.4667 291° West  Level FlightAware Approximate
02:51PM 30.4000 -86.4715 90° East  Level Estimated
02:52PM 30.4000 -86.4667 291° West  Level FlightAware Approximate
02:53PM 30.4000 -86.4715 90° East  Level Estimated
02:54PM 30.4000 -86.4667 291° West  Level FlightAware Approximate
02:55PM 30.4000 -86.4715 90° East  Level Estimated
02:56PM 30.4000 -86.4667 291° West  Level FlightAware Approximate
02:57PM 30.4000 -86.4715 90° East  Level Estimated